Terminal Aerodrome Forecast
Issued by NWS Chicago, IL

Home | Current Version | Previous Version | Text Only | Print | Product List | Glossary Off
Versions: 1 2 3 4 5 6 7 8 9 10 11 12 13 14 15 16 17 18 19 20 21 22 23 24 25 26 27 28 29 30

191
FTUS43 KLOT 180901 AAA
TAFRFD
TAF AMD
KRFD 180901Z 1809/1906 36008KT 2SM -DZ BR BKN004 OVC008
     FM181400 36016G26KT 3SM RA BR BKN005 OVC015
      TEMPO 1815/1818 2SM RASN
     FM181800 34018G29KT P6SM VCSH OVC015
     FM182100 33017G27KT P6SM BKN025=

USA.gov is the U.S. government's official web portal to all federal, state and local government web resources and services.